Time;durP1;ratioP1;P1;durP2;ratioP2;P2;SDS_P1;SDS_P2;PMS_P1;PMS_P2;Temp;Humidity;BMP_temperature;BMP_pressure;BME280_temperature;BME280_humidity;BME280_pressure;Samples;Min_cycle;Max_cycle;Signal;HPM_P1;HPM_P2
2022/06/22 00:00:44;;;;;;;6.10;5.70;;;14.90;99.90;;;;;;5073829;28;20182;-67
2022/06/22 00:03:11;;;;;;;5.70;5.20;;;14.90;99.90;;;;;;5063562;28;20644;-67
2022/06/22 00:05:49;;;;;;;6.10;5.60;;;14.90;99.90;;;;;;5053335;28;20260;-66
2022/06/22 00:08:46;;;;;;;6.47;5.87;;;14.90;99.90;;;;;;5063840;28;20702;-67
2022/06/22 00:11:15;;;;;;;6.50;5.87;;;14.90;99.90;;;;;;5073100;28;20186;-68
2022/06/22 00:13:50;;;;;;;7.17;5.50;;;14.80;99.90;;;;;;5059395;28;20194;-68
2022/06/22 00:16:19;;;;;;;5.73;5.33;;;14.80;99.90;;;;;;5061498;28;20626;-67
2022/06/22 00:18:48;;;;;;;5.87;5.40;;;14.70;99.90;;;;;;5073265;28;20217;-67
2022/06/22 00:21:28;;;;;;;5.93;5.43;;;14.60;99.90;;;;;;5065587;28;20206;-68
2022/06/22 00:23:58;;;;;;;5.70;5.30;;;14.60;99.90;;;;;;5053324;28;20232;-67
2022/06/22 00:26:23;;;;;;;7.30;5.37;;;14.60;99.90;;;;;;5061453;28;20201;-66
2022/06/22 00:29:04;;;;;;;5.83;5.43;;;14.60;99.90;;;;;;5073339;28;20193;-67
2022/06/22 00:31:42;;;;;;;10.67;5.90;;;14.50;99.90;;;;;;5064682;28;20178;-67
2022/06/22 00:34:11;;;;;;;6.30;5.70;;;14.40;99.90;;;;;;5052917;28;20166;-68
2022/06/22 00:36:46;;;;;;;6.63;5.97;;;14.30;99.90;;;;;;5061813;28;20210;-67
2022/06/22 00:39:20;;;;;;;5.90;5.50;;;14.20;99.90;;;;;;5073055;28;20235;-67
2022/06/22 00:41:58;;;;;;;7.90;5.80;;;14.00;99.90;;;;;;5062991;28;20178;-67
2022/06/22 00:44:33;;;;;;;6.53;5.83;;;13.90;99.90;;;;;;5052636;28;20159;-65
2022/06/22 00:47:09;;;;;;;6.50;6.00;;;13.90;99.90;;;;;;5054080;28;20171;-64
2022/06/22 00:49:35;;;;;;;6.97;5.93;;;13.90;99.90;;;;;;5053266;28;20186;-66
2022/06/22 00:52:07;;;;;;;6.27;5.70;;;13.90;99.90;;;;;;5063013;28;20260;-66
2022/06/22 00:54:35;;;;;;;7.40;6.13;;;13.90;99.90;;;;;;5072507;28;20178;-65
2022/06/22 00:57:10;;;;;;;6.73;6.13;;;13.90;99.90;;;;;;5063062;28;20239;-65
2022/06/22 00:59:53;;;;;;;7.17;6.57;;;13.90;99.90;;;;;;5060104;28;20726;-65
2022/06/22 01:02:32;;;;;;;7.03;6.43;;;13.90;99.90;;;;;;5073083;28;20666;-65
2022/06/22 01:05:06;;;;;;;6.83;6.33;;;14.00;99.90;;;;;;5062067;28;20202;-65
2022/06/22 01:07:44;;;;;;;7.37;6.80;;;13.90;99.90;;;;;;5052660;28;20543;-66
2022/06/22 01:10:20;;;;;;;7.83;7.07;;;13.90;99.90;;;;;;5063811;28;20581;-65
2022/06/22 01:12:57;;;;;;;6.80;6.30;;;13.90;99.90;;;;;;5072333;28;20223;-66
2022/06/22 01:15:33;;;;;;;7.33;6.37;;;13.80;99.90;;;;;;5059400;28;20178;-65
2022/06/22 01:18:27;;;;;;;6.73;6.23;;;13.70;99.90;;;;;;5052078;28;20206;-65
2022/06/22 01:21:08;;;;;;;7.00;6.30;;;13.70;99.90;;;;;;5068131;28;20274;-65
2022/06/22 01:23:39;;;;;;;7.13;6.43;;;13.60;99.90;;;;;;5071558;28;20569;-66
2022/06/22 01:26:24;;;;;;;7.03;6.40;;;13.60;99.90;;;;;;5051261;28;20206;-64
2022/06/22 01:29:00;;;;;;;6.87;6.27;;;13.70;99.90;;;;;;5053631;28;20754;-66
2022/06/22 01:31:27;;;;;;;7.17;6.60;;;13.70;99.90;;;;;;5072137;28;20170;-65
2022/06/22 01:33:54;;;;;;;7.20;6.70;;;13.60;99.90;;;;;;5069557;28;20174;-66
2022/06/22 01:36:33;;;;;;;7.60;6.90;;;13.60;99.90;;;;;;5052083;28;20587;-66
2022/06/22 01:39:01;;;;;;;7.10;6.40;;;13.60;99.90;;;;;;5054028;28;20190;-66
2022/06/22 01:41:35;;;;;;;7.77;6.97;;;13.60;99.90;;;;;;5054292;28;20178;-66
2022/06/22 01:44:33;;;;;;;7.33;6.73;;;13.60;99.90;;;;;;5054083;28;20205;-67
2022/06/22 01:47:40;;;;;;;7.50;6.90;;;13.50;99.90;;;;;;5052976;28;20183;-67
2022/06/22 01:50:28;;;;;;;7.77;6.53;;;13.40;99.90;;;;;;5051950;28;20640;-67
2022/06/22 01:53:01;;;;;;;8.17;7.03;;;13.40;99.90;;;;;;5066439;28;20594;-66
2022/06/22 01:55:50;;;;;;;7.53;6.83;;;13.30;99.90;;;;;;5071049;28;20163;-67
2022/06/22 01:58:19;;;;;;;7.50;6.80;;;13.20;99.90;;;;;;5051616;28;20182;-64
2022/06/22 02:00:50;;;;;;;7.10;6.50;;;13.20;99.90;;;;;;5053528;28;20162;-67
2022/06/22 02:03:24;;;;;;;8.07;6.40;;;13.10;99.90;;;;;;5071732;28;20602;-67
2022/06/22 02:05:58;;;;;;;10.00;7.50;;;13.10;99.90;;;;;;5068837;28;20675;-67
2022/06/22 02:08:38;;;;;;;7.20;6.57;;;13.00;99.90;;;;;;5051607;28;20245;-67
2022/06/22 02:11:09;;;;;;;8.60;6.87;;;13.00;99.90;;;;;;5060917;28;20172;-67
2022/06/22 02:13:51;;;;;;;7.57;6.87;;;13.00;99.90;;;;;;5071438;28;20171;-67
2022/06/22 02:16:33;;;;;;;9.60;7.50;;;13.00;99.90;;;;;;5060814;28;20532;-67
2022/06/22 02:18:58;;;;;;;8.57;7.20;;;12.90;99.90;;;;;;5051218;28;20237;-67
2022/06/22 02:21:32;;;;;;;8.90;7.53;;;12.90;99.90;;;;;;5062256;28;20182;-67
2022/06/22 02:24:09;;;;;;;7.17;6.77;;;12.90;99.90;;;;;;5071108;28;20253;-67
2022/06/22 02:26:45;;;;;;;8.17;7.43;;;12.90;99.90;;;;;;5059087;28;20210;-67
2022/06/22 02:29:14;;;;;;;10.30;7.90;;;12.90;99.90;;;;;;5051297;28;20187;-67
2022/06/22 02:31:40;;;;;;;8.40;7.60;;;12.80;99.90;;;;;;5063261;28;20174;-66
2022/06/22 02:34:06;;;;;;;10.63;7.50;;;12.70;99.90;;;;;;5071031;28;20273;-66
2022/06/22 02:36:36;;;;;;;8.67;7.80;;;12.70;99.90;;;;;;5059627;28;20189;-67
2022/06/22 02:39:04;;;;;;;8.17;7.33;;;12.70;99.90;;;;;;5055299;28;20228;-66
2022/06/22 02:44:29;;;;;;;7.90;7.20;;;12.70;99.90;;;;;;5075053;28;20181;-65
2022/06/22 02:47:00;;;;;;;8.43;7.50;;;12.70;99.90;;;;;;5062471;28;20515;-67
2022/06/22 02:49:35;;;;;;;8.47;7.77;;;12.70;99.90;;;;;;5055330;28;20223;-67
2022/06/22 02:52:03;;;;;;;8.73;7.70;;;12.70;99.90;;;;;;5067659;28;20201;-66
2022/06/22 02:54:34;;;;;;;8.73;7.90;;;12.70;99.90;;;;;;5074685;28;20170;-67
2022/06/22 02:57:05;;;;;;;8.37;7.57;;;12.70;99.90;;;;;;5062548;28;20226;-67
2022/06/22 02:59:32;;;;;;;8.13;7.43;;;12.70;99.90;;;;;;5054946;28;20535;-66
2022/06/22 03:01:58;;;;;;;9.60;7.33;;;12.70;99.90;;;;;;5065909;28;20201;-67
2022/06/22 03:04:24;;;;;;;8.43;7.70;;;12.80;99.90;;;;;;5074559;28;20249;-67
2022/06/22 03:06:53;;;;;;;8.33;7.63;;;12.80;99.90;;;;;;5064833;28;20321;-68
2022/06/22 03:09:19;;;;;;;14.60;7.63;;;12.90;99.90;;;;;;5062210;28;20197;-67
2022/06/22 03:11:48;;;;;;;8.47;7.63;;;12.90;99.90;;;;;;5074592;28;20173;-67
2022/06/22 03:14:17;;;;;;;9.63;8.53;;;12.90;99.90;;;;;;5071194;28;20232;-67
2022/06/22 03:16:46;;;;;;;8.97;8.13;;;13.00;99.90;;;;;;5054280;28;20535;-67
2022/06/22 03:19:16;;;;;;;8.87;7.97;;;13.00;99.90;;;;;;5054453;28;20198;-67
2022/06/22 03:21:42;;;;;;;8.70;7.90;;;13.10;99.90;;;;;;5054480;28;20207;-67
2022/06/22 03:24:20;;;;;;;9.97;7.40;;;13.10;99.90;;;;;;5054408;28;20234;-67
2022/06/22 03:26:53;;;;;;;11.30;8.07;;;13.20;99.90;;;;;;5054357;28;20178;-67
2022/06/22 03:29:30;;;;;;;7.97;7.17;;;13.20;99.90;;;;;;5058420;28;20194;-67
2022/06/22 03:32:02;;;;;;;8.00;7.20;;;13.30;99.90;;;;;;5074216;28;20566;-68
2022/06/22 03:34:33;;;;;;;9.40;7.33;;;13.40;99.90;;;;;;5072343;28;20219;-67
2022/06/22 03:37:05;;;;;;;8.10;7.50;;;13.40;99.90;;;;;;5074362;28;20262;-67
2022/06/22 03:39:35;;;;;;;13.80;8.23;;;13.40;99.90;;;;;;5068625;28;20191;-67
2022/06/22 03:42:06;;;;;;;9.50;7.77;;;13.40;99.90;;;;;;5036083;28;20175;-66
2022/06/22 03:44:44;;;;;;;10.00;7.80;;;13.40;99.90;;;;;;5058437;28;20541;-66
2022/06/22 03:47:19;;;;;;;8.07;7.37;;;13.50;99.90;;;;;;5074157;28;20204;-67
2022/06/22 03:50:02;;;;;;;9.47;7.33;;;13.50;99.90;;;;;;5066764;28;20182;-65
2022/06/22 03:52:51;;;;;;;8.20;7.43;;;13.40;99.90;;;;;;5054039;28;20246;-66
2022/06/22 03:55:24;;;;;;;11.17;8.00;;;13.20;99.90;;;;;;5066673;28;20552;-67
2022/06/22 03:57:53;;;;;;;8.40;7.30;;;13.20;99.90;;;;;;5073743;28;20190;-67
2022/06/22 04:00:20;;;;;;;16.80;8.47;;;13.20;99.90;;;;;;5060545;28;20178;-66
2022/06/22 04:02:47;;;;;;;13.23;7.50;;;13.10;99.90;;;;;;5058495;28;20177;-65
2022/06/22 04:05:20;;;;;;;9.33;7.60;;;13.10;99.90;;;;;;5073412;28;20251;-66
2022/06/22 04:07:46;;;;;;;9.50;7.10;;;13.00;99.90;;;;;;5057297;28;20269;-68
2022/06/22 04:10:38;;;;;;;9.07;7.90;;;13.10;99.90;;;;;;5053688;28;20174;-68
2022/06/22 04:13:11;;;;;;;7.83;7.23;;;13.20;99.90;;;;;;5071422;28;20178;-65
2022/06/22 04:15:53;;;;;;;8.00;7.23;;;13.20;99.90;;;;;;5073334;28;20162;-65
2022/06/22 04:18:29;;;;;;;8.33;7.47;;;13.20;99.90;;;;;;5053988;28;20214;-66
2022/06/22 04:21:02;;;;;;;12.03;7.70;;;13.30;99.90;;;;;;5053446;28;20538;-64
2022/06/22 04:23:40;;;;;;;8.40;7.37;;;13.40;99.90;;;;;;5033160;28;20186;-64
2022/06/22 04:26:26;;;;;;;8.50;7.70;;;13.60;99.90;;;;;;5033680;28;20294;-65
2022/06/22 04:28:59;;;;;;;7.90;7.20;;;14.00;99.90;;;;;;5032658;28;20219;-65
2022/06/22 04:31:29;;;;;;;7.93;7.33;;;14.40;99.90;;;;;;5054052;28;20505;-64
2022/06/22 04:34:01;;;;;;;7.47;6.73;;;14.60;99.90;;;;;;5072905;28;20257;-65
2022/06/22 04:36:37;;;;;;;8.23;7.00;;;15.00;99.90;;;;;;5063111;28;20241;-67
2022/06/22 04:39:14;;;;;;;12.47;8.13;;;15.10;99.90;;;;;;5053212;28;20212;-67
2022/06/22 04:41:42;;;;;;;7.63;7.07;;;15.10;99.90;;;;;;5064031;28;20186;-67
2022/06/22 04:44:15;;;;;;;8.90;8.10;;;15.40;99.90;;;;;;5072673;28;20174;-67
2022/06/22 04:46:48;;;;;;;8.27;7.40;;;15.70;99.90;;;;;;5061908;28;20694;-67
2022/06/22 04:49:42;;;;;;;7.60;6.10;;;16.20;99.90;;;;;;5053295;28;20672;-66
2022/06/22 04:52:23;;;;;;;8.97;6.63;;;16.60;99.90;;;;;;5066581;28;20170;-67
2022/06/22 04:54:53;;;;;;;7.20;6.33;;;17.20;99.90;;;;;;5072322;28;20213;-66
2022/06/22 04:57:24;;;;;;;6.37;5.73;;;17.80;99.90;;;;;;5057736;28;20170;-67
2022/06/22 04:59:50;;;;;;;6.43;5.83;;;18.30;99.90;;;;;;5065842;28;20193;-66
2022/06/22 05:02:19;;;;;;;7.13;6.53;;;18.90;99.90;;;;;;5072674;28;20177;-67
2022/06/22 05:04:52;;;;;;;7.30;5.93;;;19.50;99.90;;;;;;5059541;28;20630;-67
2022/06/22 05:07:48;;;;;;;6.57;5.40;;;20.00;99.90;;;;;;5052665;28;20193;-67
2022/06/22 05:10:22;;;;;;;6.53;5.67;;;20.50;99.90;;;;;;5067982;28;20178;-67
2022/06/22 05:13:01;;;;;;;8.57;5.63;;;20.80;99.90;;;;;;5072318;28;20201;-67
2022/06/22 05:15:34;;;;;;;6.93;6.33;;;20.80;99.90;;;;;;5055333;28;20209;-67
2022/06/22 05:18:03;;;;;;;7.85;6.13;;;20.50;99.90;;;;;;5052160;28;20296;-66
2022/06/22 05:20:39;;;;;;;6.53;6.13;;;20.30;99.90;;;;;;5068808;28;20181;-68
2022/06/22 05:23:07;;;;;;;7.80;6.20;;;20.10;99.90;;;;;;5072251;28;20174;-67
2022/06/22 05:25:33;;;;;;;6.97;6.13;;;20.20;99.90;;;;;;5055119;28;20199;-66
2022/06/22 05:28:11;;;;;;;6.10;5.50;;;20.30;99.90;;;;;;5052099;28;20198;-66
2022/06/22 05:30:46;;;;;;;5.60;5.20;;;20.60;99.90;;;;;;5068699;28;20235;-67
2022/06/22 05:33:16;;;;;;;5.97;5.25;;;20.70;99.90;;;;;;5071609;28;20201;-68
2022/06/22 05:35:47;;;;;;;6.97;5.90;;;20.60;99.90;;;;;;5071992;28;20193;-67
2022/06/22 05:38:15;;;;;;;9.17;5.30;;;20.30;99.90;;;;;;5056344;28;20202;-66
2022/06/22 05:40:43;;;;;;;7.47;5.90;;;20.10;99.90;;;;;;5051953;28;20171;-67
2022/06/22 05:43:09;;;;;;;5.83;5.37;;;20.20;99.90;;;;;;5065935;28;20608;-67
2022/06/22 05:45:56;;;;;;;6.10;5.60;;;20.20;99.90;;;;;;5071566;28;20296;-66
2022/06/22 05:48:25;;;;;;;6.03;5.43;;;20.40;99.90;;;;;;5070196;28;20198;-65
2022/06/22 05:51:04;;;;;;;7.50;5.63;;;20.80;99.90;;;;;;5071723;28;20162;-65
2022/06/22 05:53:45;;;;;;;6.50;5.90;;;20.80;99.90;;;;;;5055341;28;20672;-66
2022/06/22 05:56:26;;;;;;;6.20;5.40;;;21.00;99.90;;;;;;5052046;28;20636;-67
2022/06/22 05:59:12;;;;;;;6.82;5.10;;;21.00;99.90;;;;;;5068202;28;20208;-67
2022/06/22 06:02:04;;;;;;;5.80;5.20;;;20.90;99.90;;;;;;5055482;28;20640;-67
2022/06/22 06:04:51;;;;;;;7.47;5.78;;;21.10;99.90;;;;;;5051836;28;20244;-67
2022/06/22 06:07:33;;;;;;;7.45;4.95;;;21.50;99.90;;;;;;5071613;28;20193;-67
2022/06/22 06:10:03;;;;;;;7.50;5.20;;;21.90;99.90;;;;;;5069679;28;20209;-67
2022/06/22 06:12:38;;;;;;;7.47;5.38;;;22.20;99.90;;;;;;5062183;28;20656;-66
2022/06/22 06:15:06;;;;;;;10.40;5.50;;;22.30;99.90;;;;;;5052166;28;20213;-67
2022/06/22 06:17:46;;;;;;;5.78;5.18;;;22.60;99.90;;;;;;5051197;28;20236;-67
2022/06/22 06:20:25;;;;;;;7.30;5.10;;;22.80;99.90;;;;;;5062485;28;20555;-67
2022/06/22 06:22:57;;;;;;;6.97;5.22;;;22.80;99.90;;;;;;5071218;28;20244;-67
2022/06/22 06:28:21;;;;;;;6.32;5.72;;;22.60;99.90;;;;;;5071574;28;20205;-67
2022/06/22 06:30:51;;;;;;;7.80;5.30;;;22.40;99.90;;;;;;5055781;28;20524;-67
2022/06/22 06:33:35;;;;;;;6.35;4.97;;;22.30;99.90;;;;;;5051273;28;20171;-66
2022/06/22 06:36:11;;;;;;;7.47;5.65;;;22.50;99.90;;;;;;5067338;28;20637;-67
2022/06/22 06:38:55;;;;;;;7.07;5.20;;;22.80;99.90;;;;;;5071226;28;20190;-66
2022/06/22 06:41:24;;;;;;;5.70;5.20;;;23.20;99.90;;;;;;5052173;28;20183;-66
2022/06/22 06:44:02;;;;;;;7.03;5.55;;;23.60;99.90;;;;;;5065400;28;20186;-65
2022/06/22 06:46:39;;;;;;;9.48;5.82;;;23.70;99.90;;;;;;5067417;28;20198;-67
2022/06/22 06:49:27;;;;;;;6.90;5.30;;;24.00;99.90;;;;;;5050953;28;20187;-66
2022/06/22 06:52:03;;;;;;;10.50;5.28;;;24.50;99.90;;;;;;5057053;28;20170;-66
2022/06/22 06:54:47;;;;;;;6.00;5.38;;;24.80;99.90;;;;;;5070813;28;20381;-66
2022/06/22 06:57:16;;;;;;;5.45;4.95;;;25.10;99.90;;;;;;5062246;28;20633;-65
2022/06/22 06:59:46;;;;;;;7.53;5.65;;;25.40;99.90;;;;;;5050953;28;20179;-66
2022/06/22 07:02:16;;;;;;;6.82;5.07;;;25.90;99.90;;;;;;5058549;28;20635;-68
2022/06/22 07:04:44;;;;;;;9.55;6.05;;;26.30;99.90;;;;;;5070604;28;20530;-67
2022/06/22 07:07:28;;;;;;;9.68;5.57;;;26.20;99.90;;;;;;5063790;28;20186;-66
2022/06/22 07:09:58;;;;;;;8.20;5.38;;;26.50;99.90;;;;;;5050982;28;20541;-66
2022/06/22 07:12:26;;;;;;;8.00;5.07;;;27.10;99.90;;;;;;5052168;28;20185;-65
2022/06/22 07:14:52;;;;;;;5.07;4.63;;;27.60;99.90;;;;;;5070675;28;20695;-66
2022/06/22 07:17:20;;;;;;;5.35;4.78;;;27.80;99.90;;;;;;5056406;28;20269;-65
2022/06/22 07:19:51;;;;;;;8.45;4.95;;;27.70;99.90;;;;;;5051124;28;20167;-65
2022/06/22 07:22:32;;;;;;;8.70;5.15;;;27.30;99.90;;;;;;5051025;28;20167;-67
2022/06/22 07:25:14;;;;;;;6.57;4.93;;;27.30;99.90;;;;;;5052636;28;20206;-65
2022/06/22 07:27:47;;;;;;;5.45;4.75;;;27.50;99.90;;;;;;5054557;28;20199;-66
2022/06/22 07:30:24;;;;;;;7.05;5.28;;;27.70;99.90;;;;;;5054489;28;20636;-67
2022/06/22 07:33:02;;;;;;;11.15;5.10;;;27.90;99.90;;;;;;5034675;28;20186;-67
2022/06/22 07:35:35;;;;;;;4.30;3.90;;;28.20;99.90;;;;;;5046027;28;20229;-66
2022/06/22 07:38:24;;;;;;;7.00;4.70;;;28.70;99.90;;;;;;5053583;28;20675;-66
2022/06/22 07:43:35;;;;;;;6.78;5.55;;;29.30;99.90;;;;;;5066902;28;20242;-67
2022/06/22 07:46:01;;;;;;;5.30;4.80;;;29.50;99.90;;;;;;5056325;28;20297;-66
2022/06/22 07:48:31;;;;;;;6.43;4.53;;;29.80;99.90;;;;;;5070244;28;20217;-67
2022/06/22 07:51:00;;;;;;;6.50;5.35;;;29.80;99.90;;;;;;5069120;28;20704;-66
2022/06/22 07:54:05;;;;;;;6.43;5.00;;;30.00;99.90;;;;;;5053798;28;20190;-67
2022/06/22 07:56:41;;;;;;;6.72;5.70;;;30.10;99.90;;;;;;5054335;28;20213;-66
2022/06/22 07:59:18;;;;;;;7.05;4.72;;;30.10;99.90;;;;;;5053690;28;20300;-66
2022/06/22 08:01:46;;;;;;;8.50;4.90;;;30.50;99.90;;;;;;5053523;28;20579;-66
2022/06/22 08:04:32;;;;;;;7.68;6.95;;;31.00;99.90;;;;;;5052784;28;20262;-67
2022/06/22 08:07:12;;;;;;;7.72;5.30;;;31.40;99.90;;;;;;5066160;28;20235;-67
2022/06/22 08:09:46;;;;;;;8.32;4.53;;;31.90;99.90;;;;;;5033735;28;20187;-67
2022/06/22 08:12:39;;;;;;;6.50;4.80;;;32.20;99.90;;;;;;5060747;28;20184;-66
2022/06/22 08:15:08;;;;;;;6.07;4.50;;;32.00;99.90;;;;;;5033144;28;20177;-66
2022/06/22 08:17:44;;;;;;;4.47;4.07;;;32.10;99.90;;;;;;5043246;28;20218;-66
2022/06/22 08:20:20;;;;;;;4.60;4.18;;;32.20;99.90;;;;;;5053169;28;20182;-67
2022/06/22 08:22:48;;;;;;;5.20;4.50;;;32.30;99.90;;;;;;5062591;28;20547;-66
2022/06/22 08:25:18;;;;;;;9.93;5.05;;;32.10;99.90;;;;;;5073228;28;20517;-66
2022/06/22 08:27:44;;;;;;;5.55;4.55;;;32.00;99.90;;;;;;5063269;28;20552;-66
2022/06/22 08:30:12;;;;;;;4.18;3.78;;;32.30;99.90;;;;;;5061154;28;20261;-66
2022/06/22 08:32:44;;;;;;;4.50;4.07;;;32.80;99.90;;;;;;5070707;28;20205;-66
2022/06/22 08:35:17;;;;;;;5.22;4.13;;;33.10;99.90;;;;;;5072458;28;20577;-66
2022/06/22 08:38:03;;;;;;;6.70;4.13;;;33.30;99.80;;;;;;5067935;28;20572;-65
2022/06/22 08:40:45;;;;;;;4.95;4.10;;;33.20;99.90;;;;;;5067179;28;20286;-66
2022/06/22 08:43:34;;;;;;;4.25;3.75;;;32.60;99.40;;;;;;5071168;28;20173;-66
2022/06/22 08:46:42;;;;;;;5.68;3.83;;;32.40;99.70;;;;;;5063411;28;20297;-66
2022/06/22 08:49:13;;;;;;;5.28;4.15;;;32.50;99.70;;;;;;5052516;28;20210;-67
2022/06/22 08:51:54;;;;;;;5.43;3.85;;;32.20;97.70;;;;;;5037641;28;20171;-66
2022/06/22 08:54:25;;;;;;;3.92;3.63;;;32.00;98.30;;;;;;5061684;28;20182;-66
2022/06/22 08:57:18;;;;;;;4.95;4.28;;;31.80;99.90;;;;;;5056097;28;20175;-66
2022/06/22 08:59:50;;;;;;;4.07;3.70;;;31.70;99.80;;;;;;5042149;28;20178;-67
2022/06/22 09:02:47;;;;;;;4.57;3.25;;;32.00;98.20;;;;;;5064812;28;20210;-66
2022/06/22 09:05:55;;;;;;;4.22;3.30;;;32.70;98.70;;;;;;5059133;28;20194;-66
2022/06/22 09:08:39;;;;;;;3.80;3.45;;;32.90;95.50;;;;;;5050765;28;20684;-66
2022/06/22 09:11:15;;;;;;;4.25;3.95;;;32.90;96.60;;;;;;5057899;28;20188;-66
2022/06/22 09:13:41;;;;;;;3.65;3.10;;;33.00;97.10;;;;;;5071061;28;20177;-66
2022/06/22 09:16:41;;;;;;;3.47;3.17;;;33.50;96.90;;;;;;5057526;28;20179;-66
2022/06/22 09:19:37;;;;;;;3.97;2.80;;;33.60;94.80;;;;;;5060886;28;20224;-64
2022/06/22 09:22:08;;;;;;;3.63;3.33;;;33.70;94.60;;;;;;5032343;28;20176;-67
2022/06/22 09:24:39;;;;;;;4.15;3.50;;;33.90;93.60;;;;;;5040052;28;20577;-66
2022/06/22 09:27:15;;;;;;;3.65;3.38;;;33.90;93.40;;;;;;5063326;28;20538;-66
2022/06/22 09:29:47;;;;;;;4.57;3.20;;;33.90;91.90;;;;;;5072127;28;20177;-65
2022/06/22 09:32:18;;;;;;;3.53;3.22;;;34.00;94.00;;;;;;5052176;28;20200;-66
2022/06/22 09:34:50;;;;;;;4.80;3.47;;;34.00;93.70;;;;;;5058331;28;20180;-65
2022/06/22 09:37:24;;;;;;;4.15;3.42;;;34.00;91.60;;;;;;5058689;28;20264;-64
2022/06/22 09:40:09;;;;;;;3.13;2.92;;;33.90;92.20;;;;;;5071575;28;20185;-65
2022/06/22 09:42:47;;;;;;;3.50;3.15;;;33.50;90.70;;;;;;5063934;28;20179;-65
2022/06/22 09:45:31;;;;;;;3.80;3.28;;;33.00;92.50;;;;;;5064343;28;20288;-65
2022/06/22 09:48:26;;;;;;;3.33;3.13;;;32.90;90.10;;;;;;5052854;28;20194;-65
2022/06/22 09:51:03;;;;;;;3.47;3.28;;;32.60;91.80;;;;;;5065006;28;20197;-65
2022/06/22 09:53:55;;;;;;;3.53;3.05;;;32.40;93.10;;;;;;5042518;28;20182;-65
2022/06/22 09:56:41;;;;;;;3.13;2.72;;;32.20;91.00;;;;;;5069221;28;20185;-65
2022/06/22 09:59:25;;;;;;;3.20;2.90;;;32.80;87.80;;;;;;5058162;28;20275;-65
2022/06/22 10:02:10;;;;;;;3.42;3.10;;;33.40;91.00;;;;;;5053336;28;20213;-65
2022/06/22 10:04:56;;;;;;;3.25;2.95;;;33.80;92.10;;;;;;5056659;28;20715;-65
2022/06/22 10:07:46;;;;;;;3.38;3.08;;;34.00;89.20;;;;;;5054599;28;20221;-65
2022/06/22 10:10:34;;;;;;;3.20;2.80;;;34.50;90.40;;;;;;5040460;28;20194;-65
2022/06/22 10:13:18;;;;;;;3.20;2.90;;;34.20;88.60;;;;;;5054051;28;20190;-65
2022/06/22 10:16:00;;;;;;;3.80;2.60;;;34.50;88.90;;;;;;5070932;28;20646;-65
2022/06/22 10:18:48;;;;;;;2.95;2.75;;;34.60;86.80;;;;;;5069729;28;20225;-65
2022/06/22 10:21:26;;;;;;;10.48;3.33;;;35.00;83.50;;;;;;5031706;28;20167;-66
2022/06/22 10:24:14;;;;;;;6.10;2.97;;;35.00;79.50;;;;;;5064997;28;20204;-65
2022/06/22 10:26:52;;;;;;;3.10;2.90;;;34.70;82.50;;;;;;5071166;28;20209;-66
2022/06/22 10:29:27;;;;;;;4.53;3.45;;;34.30;80.80;;;;;;5051472;28;20651;-66
2022/06/22 10:32:14;;;;;;;2.92;2.72;;;33.30;83.60;;;;;;5056865;28;20503;-64
2022/06/22 10:35:08;;;;;;;3.08;2.78;;;33.40;89.30;;;;;;5056118;28;20179;-65
2022/06/22 10:37:43;;;;;;;5.38;3.50;;;33.60;82.80;;;;;;5045518;28;20178;-66
2022/06/22 10:46:52;;;;;;;3.55;3.00;;;33.50;79.30;;;;;;5038234;28;20495;-66
2022/06/22 10:49:33;;;;;;;3.28;2.97;;;33.50;83.40;;;;;;5064101;28;20201;-66
2022/06/22 10:52:21;;;;;;;4.45;3.08;;;34.10;81.30;;;;;;5052225;28;20187;-66
2022/06/22 10:54:55;;;;;;;2.90;2.70;;;34.40;78.00;;;;;;5055917;28;20174;-66
2022/06/22 10:57:24;;;;;;;3.70;2.90;;;34.70;77.10;;;;;;5069332;28;20290;-65
2022/06/22 11:00:16;;;;;;;4.03;3.03;;;34.50;76.60;;;;;;5062059;28;20235;-66
2022/06/22 11:03:25;;;;;;;4.60;2.90;;;34.60;85.50;;;;;;5048793;28;20245;-66
2022/06/22 11:06:27;;;;;;;4.57;2.95;;;35.00;78.30;;;;;;5055748;28;20210;-65
2022/06/22 11:09:02;;;;;;;4.82;3.28;;;34.90;79.90;;;;;;5028607;28;20746;-65
2022/06/22 11:11:30;;;;;;;5.82;2.92;;;35.10;76.90;;;;;;5064757;28;20651;-66
2022/06/22 11:14:16;;;;;;;3.65;2.85;;;34.90;78.60;;;;;;5067555;28;20167;-65
2022/06/22 11:17:02;;;;;;;3.72;3.00;;;35.20;79.30;;;;;;5055340;28;20182;-66
2022/06/22 11:19:55;;;;;;;3.17;2.85;;;35.40;76.60;;;;;;5066703;28;20209;-66
2022/06/22 11:22:45;;;;;;;3.08;2.88;;;35.90;76.80;;;;;;5054563;28;20561;-66
2022/06/22 11:31:44;;;;;;;3.17;2.83;;;36.10;76.70;;;;;;5034687;28;20738;-66
2022/06/22 11:34:30;;;;;;;3.60;3.00;;;35.60;74.30;;;;;;5036202;28;20176;-66
2022/06/22 11:36:56;;;;;;;4.55;2.72;;;35.30;74.10;;;;;;5044941;28;20190;-65
2022/06/22 11:39:40;;;;;;;3.08;2.78;;;35.10;71.60;;;;;;5056408;28;20259;-65
2022/06/22 11:42:16;;;;;;;2.75;2.55;;;35.20;71.50;;;;;;5061605;28;20605;-66
2022/06/22 11:48:00;;;;;;;3.78;2.80;;;35.20;74.00;;;;;;5074251;28;20193;-65
2022/06/22 11:50:48;;;;;;;3.47;3.00;;;35.50;70.10;;;;;;5072250;28;20181;-65
2022/06/22 11:53:48;;;;;;;5.07;3.10;;;35.70;77.30;;;;;;5065458;28;20179;-65
2022/06/22 11:56:46;;;;;;;6.10;2.97;;;36.40;74.30;;;;;;5070265;28;20186;-65
2022/06/22 11:59:38;;;;;;;4.75;3.13;;;36.60;72.50;;;;;;5070307;28;20277;-65
2022/06/22 12:02:52;;;;;;;3.20;2.90;;;35.90;72.40;;;;;;5067998;28;20268;-66
2022/06/22 12:05:51;;;;;;;5.45;3.20;;;35.30;73.20;;;;;;5048069;28;20226;-65
2022/06/22 12:08:34;;;;;;;3.90;2.92;;;34.90;71.70;;;;;;5053192;28;20286;-65
2022/06/22 12:11:25;;;;;;;5.72;3.33;;;34.50;69.80;;;;;;5052783;28;20175;-66
2022/06/22 12:17:02;;;;;;;3.72;3.53;;;34.00;77.40;;;;;;5053417;28;20185;-65
2022/06/22 12:19:46;;;;;;;3.72;3.42;;;33.60;73.70;;;;;;5053378;28;20238;-65
2022/06/22 12:22:53;;;;;;;4.82;3.88;;;34.10;80.80;;;;;;5053530;28;20183;-65
2022/06/22 12:25:24;;;;;;;4.55;2.75;;;34.20;75.00;;;;;;5041230;28;20582;-65
2022/06/22 12:28:17;;;;;;;4.30;3.90;;;34.00;74.70;;;;;;5053419;28;20660;-65
2022/06/22 12:30:57;;;;;;;3.90;3.33;;;33.60;75.50;;;;;;5045430;28;20190;-64
2022/06/22 12:33:30;;;;;;;3.90;3.17;;;33.60;78.40;;;;;;5053194;28;20185;-65
2022/06/22 12:36:02;;;;;;;4.10;3.38;;;33.70;73.80;;;;;;5052944;28;20166;-66
2022/06/22 12:38:43;;;;;;;8.93;3.55;;;33.60;74.50;;;;;;5053088;28;20699;-65
2022/06/22 12:41:27;;;;;;;3.50;3.15;;;33.90;81.10;;;;;;5053038;28;20544;-65
2022/06/22 12:44:18;;;;;;;4.10;3.10;;;34.40;80.00;;;;;;5052525;28;20166;-65
2022/06/22 12:46:59;;;;;;;3.13;2.80;;;34.90;73.50;;;;;;5052854;28;20225;-66
2022/06/22 12:49:46;;;;;;;4.75;3.47;;;35.30;74.40;;;;;;5052837;28;20191;-65
2022/06/22 12:52:30;;;;;;;3.65;3.30;;;35.80;72.90;;;;;;5052961;28;20571;-65
2022/06/22 12:55:01;;;;;;;3.95;2.92;;;35.60;75.30;;;;;;5052455;28;20163;-66
2022/06/22 12:57:37;;;;;;;3.00;2.80;;;35.50;71.90;;;;;;5052847;28;20649;-66
2022/06/22 13:00:11;;;;;;;5.03;3.08;;;35.10;71.60;;;;;;5052833;28;20236;-65
2022/06/22 13:02:40;;;;;;;3.45;2.95;;;34.30;69.90;;;;;;5053128;28;20163;-65
2022/06/22 13:05:18;;;;;;;4.40;3.20;;;33.50;72.30;;;;;;5052577;28;20625;-65
2022/06/22 13:07:49;;;;;;;3.50;3.22;;;33.30;73.10;;;;;;5052419;28;20183;-66
2022/06/22 13:10:18;;;;;;;3.40;2.97;;;33.80;72.60;;;;;;5052859;28;20171;-65
2022/06/22 13:13:26;;;;;;;3.88;3.22;;;34.00;75.50;;;;;;5052516;28;20174;-65
2022/06/22 13:15:57;;;;;;;3.30;3.00;;;33.90;76.50;;;;;;5037434;28;20221;-65
2022/06/22 13:18:30;;;;;;;3.10;2.90;;;34.10;76.40;;;;;;5052309;28;20264;-65
2022/06/22 13:21:06;;;;;;;6.63;3.30;;;34.20;71.20;;;;;;5052247;28;20185;-66
2022/06/22 13:23:44;;;;;;;3.90;3.10;;;34.30;76.10;;;;;;5051312;28;20166;-65
2022/06/22 13:26:17;;;;;;;4.40;3.53;;;34.40;78.60;;;;;;5052462;28;20194;-66
2022/06/22 13:29:02;;;;;;;3.50;3.20;;;34.60;71.10;;;;;;5052294;28;20201;-65
2022/06/22 13:31:32;;;;;;;2.97;2.78;;;34.20;76.00;;;;;;5052450;28;20224;-66
2022/06/22 13:34:08;;;;;;;5.00;3.05;;;33.90;76.70;;;;;;5052183;28;20171;-66
2022/06/22 13:36:51;;;;;;;3.72;2.92;;;33.70;71.20;;;;;;5052136;28;20181;-66
2022/06/22 13:39:19;;;;;;;3.55;3.25;;;33.30;75.40;;;;;;5052261;28;20660;-66
2022/06/22 13:42:00;;;;;;;4.30;3.40;;;32.70;75.00;;;;;;5051856;28;20526;-65
2022/06/22 13:44:32;;;;;;;3.30;3.00;;;33.00;79.80;;;;;;5051831;28;20174;-65
2022/06/22 13:47:27;;;;;;;3.22;2.92;;;33.40;71.90;;;;;;5051766;28;20226;-66
2022/06/22 13:50:25;;;;;;;6.32;2.67;;;33.60;76.10;;;;;;5060320;28;20196;-66
2022/06/22 13:52:57;;;;;;;2.90;2.70;;;33.60;71.50;;;;;;5068104;28;20206;-65
2022/06/22 13:55:22;;;;;;;3.58;2.70;;;33.60;72.40;;;;;;5051359;28;20680;-65
2022/06/22 13:57:59;;;;;;;3.60;3.00;;;33.50;71.00;;;;;;5051343;28;20203;-66
2022/06/22 14:00:42;;;;;;;3.47;3.05;;;33.80;69.10;;;;;;5051371;28;20551;-65
2022/06/22 14:03:19;;;;;;;4.35;3.03;;;34.20;73.50;;;;;;5051028;28;20171;-66
2022/06/22 14:05:55;;;;;;;3.28;2.97;;;34.30;67.80;;;;;;5051350;28;20202;-65